KHB103 UHHH-UHWW
Flight info
| Callsign | KHB103 |
|---|---|
| Flight time | 1h 0m |
| Altitude | 38000 |
| Route | ARDEL4V ARDEL B355 BG G714 DAGES DAGES2M |
| Aircraft | A320/M-SDE3FGHIRWY/LB1 |
Departure
| Time | 2026-04-30 11:56 |
|---|---|
| Airport | Khabarovsk Novy Airport (UHHH) |
Arrival
| Time | 2026-04-30 12:56 |
|---|---|
| Airport | Vladivostok International Airport (UHWW) |
| Time | Latitude | Longitude | Altitude | Speed | Heading |
|---|---|---|---|---|---|
| 2026-04-30 11:45 | 48.52482 | 135.17325 | 246 ft | 8 kts | 42° |
| 2026-04-30 11:46 | 48.52618 | 135.17508 | 244 ft | 12 kts | 42° |
| 2026-04-30 11:46 | 48.52680 | 135.17568 | 244 ft | 12 kts | 8° |
| 2026-04-30 11:46 | 48.52756 | 135.17523 | 243 ft | 12 kts | 360° |
| 2026-04-30 11:47 | 48.52830 | 135.17604 | 243 ft | 15 kts | 41° |
| 2026-04-30 11:47 | 48.52907 | 135.17709 | 243 ft | 14 kts | 42° |
| 2026-04-30 11:47 | 48.52906 | 135.17835 | 244 ft | 14 kts | 124° |
| 2026-04-30 11:47 | 48.52838 | 135.17958 | 244 ft | 17 kts | 130° |
| 2026-04-30 11:48 | 48.52758 | 135.18100 | 244 ft | 19 kts | 129° |
| 2026-04-30 11:48 | 48.52681 | 135.18211 | 244 ft | 14 kts | 138° |
| 2026-04-30 11:48 | 48.52651 | 135.18346 | 243 ft | 16 kts | 63° |
| 2026-04-30 11:48 | 48.52734 | 135.18467 | 245 ft | 17 kts | 42° |
| 2026-04-30 11:49 | 48.52789 | 135.18543 | 247 ft | 6 kts | 43° |
| 2026-04-30 11:49 | 48.52821 | 135.18587 | 247 ft | 0 kts | 43° |
| 2026-04-30 11:49 | 48.52826 | 135.18595 | 247 ft | 2 kts | 43° |
| 2026-04-30 11:50 | 48.52845 | 135.18621 | 247 ft | 5 kts | 42° |
| 2026-04-30 11:50 | 48.52876 | 135.18661 | 247 ft | 7 kts | 42° |
| 2026-04-30 11:50 | 48.52913 | 135.18712 | 248 ft | 8 kts | 42° |
| 2026-04-30 11:50 | 48.52954 | 135.18770 | 249 ft | 9 kts | 42° |
| 2026-04-30 11:51 | 48.53004 | 135.18838 | 249 ft | 11 kts | 42° |
| 2026-04-30 11:51 | 48.53065 | 135.18920 | 249 ft | 12 kts | 41° |
| 2026-04-30 11:51 | 48.53132 | 135.19009 | 251 ft | 13 kts | 41° |
| 2026-04-30 11:51 | 48.53205 | 135.19110 | 250 ft | 16 kts | 43° |
| 2026-04-30 11:52 | 48.53289 | 135.19225 | 251 ft | 17 kts | 41° |
| 2026-04-30 11:52 | 48.53381 | 135.19350 | 249 ft | 13 kts | 42° |
| 2026-04-30 11:52 | 48.53455 | 135.19451 | 248 ft | 16 kts | 42° |
| 2026-04-30 11:52 | 48.53547 | 135.19577 | 244 ft | 20 kts | 42° |
| 2026-04-30 11:53 | 48.53647 | 135.19712 | 241 ft | 16 kts | 41° |
| 2026-04-30 11:53 | 48.53743 | 135.19844 | 238 ft | 21 kts | 42° |
| 2026-04-30 11:53 | 48.53858 | 135.19997 | 237 ft | 24 kts | 41° |
| 2026-04-30 11:53 | 48.53949 | 135.20068 | 236 ft | 12 kts | 11° |
| 2026-04-30 11:54 | 48.53950 | 135.20129 | 239 ft | 5 kts | 190° |
| 2026-04-30 11:54 | 48.53928 | 135.20099 | 241 ft | 0 kts | 223° |
| 2026-04-30 11:55 | 48.53845 | 135.19981 | 237 ft | 42 kts | 223° |
| 2026-04-30 11:55 | 48.53435 | 135.19433 | 250 ft | 111 kts | 220° |
| 2026-04-30 11:55 | 48.52753 | 135.18560 | 581 ft | 132 kts | 217° |
| 2026-04-30 11:56 | 48.52106 | 135.17704 | 1527 ft | 125 kts | 216° |
| 2026-04-30 11:56 | 48.51323 | 135.16759 | 1829 ft | 163 kts | 217° |
| 2026-04-30 11:56 | 48.50157 | 135.16039 | 2109 ft | 212 kts | 192° |
| 2026-04-30 11:56 | 48.48591 | 135.16126 | 2383 ft | 226 kts | 181° |
| 2026-04-30 11:57 | 48.47081 | 135.16498 | 2655 ft | 221 kts | 180° |
| 2026-04-30 11:57 | 48.45472 | 135.16901 | 2930 ft | 254 kts | 180° |
| 2026-04-30 11:57 | 48.43709 | 135.17314 | 4056 ft | 244 kts | 181° |
| 2026-04-30 11:57 | 48.42123 | 135.17678 | 5536 ft | 223 kts | 183° |
| 2026-04-30 11:58 | 48.40624 | 135.17990 | 6636 ft | 215 kts | 184° |
| 2026-04-30 11:58 | 48.39124 | 135.18260 | 7417 ft | 218 kts | 184° |
| 2026-04-30 11:58 | 48.37599 | 135.18506 | 8172 ft | 223 kts | 184° |
| 2026-04-30 11:58 | 48.36034 | 135.18745 | 8900 ft | 228 kts | 183° |
| 2026-04-30 11:59 | 48.34378 | 135.18982 | 9251 ft | 254 kts | 183° |
| 2026-04-30 11:59 | 48.32527 | 135.19235 | 9535 ft | 280 kts | 182° |
| 2026-04-30 11:59 | 48.31184 | 135.19424 | 9756 ft | 294 kts | 181° |
| 2026-04-30 11:59 | 48.28602 | 135.19841 | 11388 ft | 268 kts | 180° |
| 2026-04-30 12:00 | 48.27410 | 135.20046 | 12098 ft | 255 kts | 180° |
| 2026-04-30 12:00 | 48.25154 | 135.20423 | 13239 ft | 236 kts | 180° |
| 2026-04-30 12:00 | 48.24075 | 135.20592 | 13596 ft | 235 kts | 181° |
| 2026-04-30 12:00 | 48.21910 | 135.20784 | 14183 ft | 232 kts | 188° |
| 2026-04-30 12:01 | 48.20311 | 135.20602 | 14618 ft | 229 kts | 195° |
| 2026-04-30 12:01 | 48.18743 | 135.20173 | 14961 ft | 234 kts | 197° |
| 2026-04-30 12:01 | 48.17666 | 135.19856 | 15056 ft | 242 kts | 197° |
| 2026-04-30 12:01 | 48.15984 | 135.19375 | 15638 ft | 248 kts | 197° |
| 2026-04-30 12:02 | 48.13698 | 135.18738 | 16535 ft | 251 kts | 197° |
| 2026-04-30 12:02 | 48.12556 | 135.18423 | 16987 ft | 253 kts | 197° |
| 2026-04-30 12:02 | 48.10750 | 135.17916 | 17196 ft | 275 kts | 196° |
| 2026-04-30 12:02 | 48.08793 | 135.17362 | 17343 ft | 297 kts | 195° |
| 2026-04-30 12:03 | 48.06688 | 135.16770 | 17486 ft | 318 kts | 195° |
| 2026-04-30 12:03 | 48.02103 | 135.15500 | 17771 ft | 354 kts | 195° |
| 2026-04-30 12:03 | 47.99630 | 135.14821 | 18052 ft | 366 kts | 194° |
| 2026-04-30 12:04 | 47.97109 | 135.14133 | 18549 ft | 371 kts | 194° |
| 2026-04-30 12:04 | 47.94555 | 135.13437 | 19097 ft | 374 kts | 195° |
| 2026-04-30 12:04 | 47.91990 | 135.12741 | 19660 ft | 377 kts | 195° |
| 2026-04-30 12:04 | 47.89401 | 135.12039 | 20234 ft | 379 kts | 195° |
| 2026-04-30 12:05 | 47.86802 | 135.11331 | 20774 ft | 382 kts | 195° |
| 2026-04-30 12:05 | 47.84173 | 135.10611 | 21295 ft | 384 kts | 195° |
| 2026-04-30 12:05 | 47.81531 | 135.09896 | 21795 ft | 388 kts | 194° |
| 2026-04-30 12:05 | 47.78819 | 135.09508 | 22283 ft | 394 kts | 190° |
| 2026-04-30 12:06 | 47.76077 | 135.09201 | 22779 ft | 397 kts | 190° |
| 2026-04-30 12:06 | 47.73353 | 135.08897 | 23263 ft | 399 kts | 190° |
| 2026-04-30 12:06 | 47.70577 | 135.08587 | 23665 ft | 402 kts | 190° |
| 2026-04-30 12:06 | 47.67773 | 135.08276 | 24067 ft | 405 kts | 190° |
| 2026-04-30 12:07 | 47.64956 | 135.07965 | 24460 ft | 408 kts | 189° |
| 2026-04-30 12:07 | 47.62115 | 135.07651 | 24868 ft | 410 kts | 189° |
| 2026-04-30 12:07 | 47.59257 | 135.07336 | 25244 ft | 413 kts | 189° |
| 2026-04-30 12:07 | 47.56382 | 135.07019 | 25619 ft | 415 kts | 189° |
| 2026-04-30 12:08 | 47.53492 | 135.06702 | 26003 ft | 418 kts | 189° |
| 2026-04-30 12:08 | 47.50579 | 135.06383 | 26396 ft | 421 kts | 189° |
| 2026-04-30 12:08 | 47.47654 | 135.06060 | 26785 ft | 423 kts | 189° |
| 2026-04-30 12:08 | 47.44711 | 135.05736 | 27192 ft | 425 kts | 189° |
| 2026-04-30 12:09 | 47.41751 | 135.05411 | 27586 ft | 428 kts | 189° |
| 2026-04-30 12:09 | 47.38770 | 135.05085 | 27974 ft | 430 kts | 189° |
| 2026-04-30 12:09 | 47.35776 | 135.04758 | 28352 ft | 433 kts | 189° |
| 2026-04-30 12:09 | 47.32759 | 135.04431 | 28733 ft | 435 kts | 189° |
| 2026-04-30 12:10 | 47.29733 | 135.04102 | 29083 ft | 438 kts | 189° |
| 2026-04-30 12:10 | 47.26690 | 135.03767 | 29484 ft | 440 kts | 189° |
| 2026-04-30 12:10 | 47.23638 | 135.03435 | 29983 ft | 439 kts | 189° |
| 2026-04-30 12:10 | 47.20596 | 135.03111 | 30440 ft | 438 kts | 189° |
| 2026-04-30 12:11 | 47.17560 | 135.02788 | 30897 ft | 437 kts | 189° |
| 2026-04-30 12:11 | 47.14537 | 135.02464 | 31351 ft | 436 kts | 189° |
| 2026-04-30 12:11 | 47.11509 | 135.02136 | 31799 ft | 436 kts | 189° |
| 2026-04-30 12:11 | 47.08532 | 135.01815 | 32244 ft | 435 kts | 189° |
| 2026-04-30 12:12 | 47.05467 | 135.01490 | 32721 ft | 434 kts | 189° |
| 2026-04-30 12:12 | 47.02496 | 135.01176 | 33175 ft | 434 kts | 189° |
| 2026-04-30 12:12 | 46.99487 | 135.00855 | 33649 ft | 433 kts | 189° |
| 2026-04-30 12:12 | 46.96484 | 135.00528 | 34060 ft | 432 kts | 189° |
| 2026-04-30 12:13 | 46.93490 | 135.00198 | 34447 ft | 432 kts | 189° |
| 2026-04-30 12:13 | 46.90493 | 134.99870 | 34823 ft | 431 kts | 189° |
| 2026-04-30 12:13 | 46.87502 | 134.99547 | 35187 ft | 431 kts | 189° |
| 2026-04-30 12:13 | 46.84515 | 134.99229 | 35553 ft | 430 kts | 189° |
| 2026-04-30 12:14 | 46.81527 | 134.98910 | 35740 ft | 431 kts | 189° |
| 2026-04-30 12:14 | 46.75527 | 134.98154 | 35782 ft | 433 kts | 190° |
| 2026-04-30 12:15 | 46.69533 | 134.97290 | 35774 ft | 433 kts | 191° |
| 2026-04-30 12:15 | 46.63539 | 134.96441 | 35774 ft | 433 kts | 190° |
| 2026-04-30 12:16 | 46.57534 | 134.95622 | 35784 ft | 433 kts | 190° |
| 2026-04-30 12:16 | 46.51498 | 134.94812 | 35785 ft | 433 kts | 190° |
| 2026-04-30 12:17 | 46.42542 | 134.93608 | 36338 ft | 432 kts | 190° |
| 2026-04-30 12:17 | 46.39557 | 134.93213 | 36706 ft | 431 kts | 191° |
| 2026-04-30 12:17 | 46.36576 | 134.92817 | 37054 ft | 430 kts | 191° |
| 2026-04-30 12:18 | 46.33590 | 134.92419 | 37382 ft | 430 kts | 191° |
| 2026-04-30 12:18 | 46.30612 | 134.92025 | 37705 ft | 430 kts | 191° |
| 2026-04-30 12:18 | 46.24652 | 134.91234 | 37802 ft | 430 kts | 191° |
| 2026-04-30 12:19 | 46.18698 | 134.90423 | 37816 ft | 429 kts | 191° |
| 2026-04-30 12:19 | 46.12748 | 134.89609 | 37816 ft | 429 kts | 191° |
| 2026-04-30 12:20 | 46.06801 | 134.88820 | 37820 ft | 429 kts | 191° |
| 2026-04-30 12:20 | 46.00849 | 134.88045 | 37821 ft | 429 kts | 191° |
| 2026-04-30 12:21 | 45.94895 | 134.87264 | 37826 ft | 429 kts | 191° |
| 2026-04-30 12:21 | 45.89140 | 134.85518 | 37825 ft | 418 kts | 207° |
| 2026-04-30 12:22 | 45.84042 | 134.81712 | 37827 ft | 412 kts | 214° |
| 2026-04-30 12:22 | 45.79047 | 134.77659 | 37830 ft | 413 kts | 214° |
| 2026-04-30 12:23 | 45.74073 | 134.73637 | 37835 ft | 413 kts | 214° |
| 2026-04-30 12:23 | 45.69024 | 134.69584 | 37840 ft | 413 kts | 214° |
| 2026-04-30 12:24 | 45.64040 | 134.65580 | 37835 ft | 414 kts | 214° |
| 2026-04-30 12:24 | 45.59023 | 134.61548 | 37843 ft | 414 kts | 214° |
| 2026-04-30 12:25 | 45.54001 | 134.57520 | 37846 ft | 414 kts | 214° |
| 2026-04-30 12:25 | 45.48988 | 134.53499 | 37850 ft | 414 kts | 214° |
| 2026-04-30 12:26 | 45.43968 | 134.49492 | 37857 ft | 414 kts | 214° |
| 2026-04-30 12:26 | 45.38946 | 134.45498 | 37862 ft | 414 kts | 213° |
| 2026-04-30 12:27 | 45.33921 | 134.41510 | 37871 ft | 414 kts | 213° |
| 2026-04-30 12:27 | 45.28889 | 134.37526 | 37878 ft | 413 kts | 213° |
| 2026-04-30 12:28 | 45.23871 | 134.33549 | 37881 ft | 413 kts | 213° |
| 2026-04-30 12:28 | 45.18853 | 134.29575 | 37880 ft | 413 kts | 213° |
| 2026-04-30 12:29 | 45.13867 | 134.25647 | 37884 ft | 413 kts | 213° |
| 2026-04-30 12:29 | 45.08848 | 134.21710 | 37884 ft | 412 kts | 213° |
| 2026-04-30 12:30 | 45.03827 | 134.17775 | 37883 ft | 412 kts | 213° |
| 2026-04-30 12:30 | 44.98811 | 134.13844 | 37887 ft | 412 kts | 213° |
| 2026-04-30 12:31 | 44.93804 | 134.09913 | 37891 ft | 412 kts | 213° |
| 2026-04-30 12:31 | 44.88801 | 134.06000 | 37890 ft | 412 kts | 213° |
| 2026-04-30 12:32 | 44.83777 | 134.02105 | 37894 ft | 412 kts | 213° |
| 2026-04-30 12:32 | 44.78795 | 133.98140 | 37892 ft | 411 kts | 214° |
| 2026-04-30 12:33 | 44.73877 | 133.94062 | 37893 ft | 411 kts | 214° |
| 2026-04-30 12:33 | 44.68950 | 133.89976 | 37891 ft | 411 kts | 214° |
| 2026-04-30 12:34 | 44.64042 | 133.85974 | 37889 ft | 411 kts | 214° |
| 2026-04-30 12:34 | 44.59087 | 133.81954 | 37364 ft | 413 kts | 214° |
| 2026-04-30 12:35 | 44.56604 | 133.79941 | 36853 ft | 411 kts | 214° |
| 2026-04-30 12:35 | 44.54135 | 133.77939 | 36269 ft | 411 kts | 214° |
| 2026-04-30 12:35 | 44.51653 | 133.75924 | 35611 ft | 412 kts | 214° |
| 2026-04-30 12:35 | 44.49167 | 133.73904 | 34879 ft | 416 kts | 214° |
| 2026-04-30 12:36 | 44.46653 | 133.71861 | 34112 ft | 420 kts | 214° |
| 2026-04-30 12:36 | 44.44116 | 133.69802 | 33221 ft | 424 kts | 213° |
| 2026-04-30 12:36 | 44.41547 | 133.67724 | 32345 ft | 427 kts | 213° |
| 2026-04-30 12:36 | 44.38969 | 133.65645 | 31440 ft | 430 kts | 213° |
| 2026-04-30 12:37 | 44.36360 | 133.63547 | 30597 ft | 432 kts | 213° |
| 2026-04-30 12:37 | 44.33739 | 133.61438 | 29511 ft | 438 kts | 213° |
| 2026-04-30 12:37 | 44.31107 | 133.59322 | 28901 ft | 432 kts | 212° |
| 2026-04-30 12:37 | 44.28526 | 133.57257 | 28323 ft | 425 kts | 212° |
| 2026-04-30 12:38 | 44.25968 | 133.55214 | 27703 ft | 420 kts | 213° |
| 2026-04-30 12:38 | 44.23451 | 133.53204 | 27089 ft | 415 kts | 213° |
| 2026-04-30 12:38 | 44.20961 | 133.51210 | 26490 ft | 410 kts | 213° |
| 2026-04-30 12:38 | 44.18505 | 133.49245 | 25909 ft | 406 kts | 212° |
| 2026-04-30 12:39 | 44.16095 | 133.47319 | 25311 ft | 402 kts | 212° |
| 2026-04-30 12:39 | 44.13686 | 133.45391 | 24734 ft | 399 kts | 213° |
| 2026-04-30 12:39 | 44.11291 | 133.43474 | 24151 ft | 396 kts | 212° |
| 2026-04-30 12:39 | 44.08906 | 133.41570 | 23584 ft | 393 kts | 212° |
| 2026-04-30 12:40 | 44.06545 | 133.39690 | 22953 ft | 390 kts | 212° |
| 2026-04-30 12:40 | 44.04204 | 133.37828 | 22406 ft | 385 kts | 212° |
| 2026-04-30 12:40 | 44.01885 | 133.35987 | 21877 ft | 382 kts | 212° |
| 2026-04-30 12:40 | 43.99588 | 133.34164 | 21362 ft | 378 kts | 212° |
| 2026-04-30 12:41 | 43.97314 | 133.32361 | 20859 ft | 375 kts | 212° |
| 2026-04-30 12:41 | 43.95058 | 133.30576 | 20369 ft | 371 kts | 212° |
| 2026-04-30 12:41 | 43.92826 | 133.28813 | 19893 ft | 367 kts | 212° |
| 2026-04-30 12:41 | 43.90629 | 133.27048 | 19409 ft | 363 kts | 215° |
| 2026-04-30 12:42 | 43.88649 | 133.24917 | 18916 ft | 357 kts | 225° |
| 2026-04-30 12:42 | 43.87004 | 133.22379 | 18418 ft | 352 kts | 235° |
| 2026-04-30 12:42 | 43.85626 | 133.19591 | 17881 ft | 349 kts | 238° |
| 2026-04-30 12:42 | 43.84279 | 133.16834 | 17367 ft | 345 kts | 237° |
| 2026-04-30 12:43 | 43.82933 | 133.14088 | 16856 ft | 342 kts | 237° |
| 2026-04-30 12:43 | 43.81600 | 133.11370 | 16336 ft | 339 kts | 237° |
| 2026-04-30 12:43 | 43.80295 | 133.08707 | 15817 ft | 337 kts | 237° |
| 2026-04-30 12:43 | 43.78978 | 133.06028 | 15291 ft | 336 kts | 237° |
| 2026-04-30 12:44 | 43.77667 | 133.03365 | 14759 ft | 334 kts | 236° |
| 2026-04-30 12:44 | 43.76361 | 133.00716 | 14230 ft | 333 kts | 236° |
| 2026-04-30 12:44 | 43.75058 | 132.98071 | 13692 ft | 332 kts | 236° |
| 2026-04-30 12:44 | 43.73758 | 132.95432 | 13113 ft | 331 kts | 236° |
| 2026-04-30 12:45 | 43.72463 | 132.92811 | 12584 ft | 329 kts | 236° |
| 2026-04-30 12:45 | 43.71183 | 132.90221 | 12053 ft | 327 kts | 236° |
| 2026-04-30 12:45 | 43.69901 | 132.87625 | 11519 ft | 325 kts | 236° |
| 2026-04-30 12:45 | 43.68626 | 132.85044 | 10985 ft | 324 kts | 236° |
| 2026-04-30 12:46 | 43.67358 | 132.82482 | 10584 ft | 319 kts | 236° |
| 2026-04-30 12:46 | 43.66135 | 132.80000 | 10463 ft | 306 kts | 238° |
| 2026-04-30 12:46 | 43.65112 | 132.77500 | 10338 ft | 294 kts | 242° |
| 2026-04-30 12:46 | 43.64142 | 132.75073 | 10222 ft | 283 kts | 242° |
| 2026-04-30 12:47 | 43.63201 | 132.72735 | 10074 ft | 275 kts | 241° |
| 2026-04-30 12:47 | 43.62278 | 132.70450 | 10008 ft | 272 kts | 241° |
| 2026-04-30 12:47 | 43.61366 | 132.68195 | 9927 ft | 273 kts | 241° |
| 2026-04-30 12:47 | 43.60434 | 132.65894 | 9509 ft | 275 kts | 241° |
| 2026-04-30 12:48 | 43.59504 | 132.63599 | 9137 ft | 274 kts | 240° |
| 2026-04-30 12:48 | 43.58878 | 132.62049 | 8901 ft | 273 kts | 240° |
| 2026-04-30 12:48 | 43.57503 | 132.59159 | 8456 ft | 271 kts | 234° |
| 2026-04-30 12:48 | 43.56496 | 132.56975 | 8152 ft | 269 kts | 239° |
| 2026-04-30 12:49 | 43.55592 | 132.54701 | 7753 ft | 269 kts | 240° |
| 2026-04-30 12:49 | 43.54715 | 132.52461 | 7232 ft | 263 kts | 240° |
| 2026-04-30 12:49 | 43.53840 | 132.50258 | 6673 ft | 260 kts | 239° |
| 2026-04-30 12:49 | 43.53267 | 132.48822 | 6324 ft | 257 kts | 239° |
| 2026-04-30 12:50 | 43.52128 | 132.45967 | 5527 ft | 252 kts | 238° |
| 2026-04-30 12:50 | 43.51287 | 132.43859 | 4867 ft | 252 kts | 238° |
| 2026-04-30 12:50 | 43.50726 | 132.42456 | 4401 ft | 251 kts | 238° |
| 2026-04-30 12:50 | 43.49902 | 132.40391 | 3901 ft | 238 kts | 238° |
| 2026-04-30 12:51 | 43.48878 | 132.37825 | 3487 ft | 222 kts | 237° |
| 2026-04-30 12:51 | 43.48426 | 132.36695 | 3306 ft | 208 kts | 237° |
| 2026-04-30 12:51 | 43.47540 | 132.34478 | 2953 ft | 180 kts | 237° |
| 2026-04-30 12:51 | 43.46965 | 132.33043 | 2738 ft | 162 kts | 236° |
| 2026-04-30 12:52 | 43.46446 | 132.31750 | 2524 ft | 146 kts | 236° |
| 2026-04-30 12:52 | 43.45977 | 132.30581 | 2355 ft | 135 kts | 235° |
| 2026-04-30 12:52 | 43.45533 | 132.29476 | 2157 ft | 132 kts | 235° |
| 2026-04-30 12:52 | 43.45233 | 132.28732 | 2031 ft | 131 kts | 235° |
| 2026-04-30 12:53 | 43.44790 | 132.27629 | 1842 ft | 132 kts | 235° |
| 2026-04-30 12:53 | 43.44349 | 132.26533 | 1671 ft | 130 kts | 235° |
| 2026-04-30 12:53 | 43.43914 | 132.25449 | 1490 ft | 129 kts | 235° |
| 2026-04-30 12:53 | 43.43481 | 132.24373 | 1308 ft | 128 kts | 236° |
| 2026-04-30 12:54 | 43.43049 | 132.23297 | 1129 ft | 128 kts | 236° |
| 2026-04-30 12:54 | 43.42615 | 132.22219 | 956 ft | 131 kts | 238° |
| 2026-04-30 12:54 | 43.42172 | 132.21119 | 790 ft | 132 kts | 237° |
| 2026-04-30 12:54 | 43.41731 | 132.20022 | 618 ft | 131 kts | 237° |
| 2026-04-30 12:55 | 43.41292 | 132.18933 | 422 ft | 130 kts | 238° |
| 2026-04-30 12:55 | 43.40845 | 132.17824 | 257 ft | 134 kts | 238° |
| 2026-04-30 12:55 | 43.40395 | 132.16707 | 85 ft | 133 kts | 239° |
| 2026-04-30 12:55 | 43.40004 | 132.15770 | 59 ft | 76 kts | 238° |
| 2026-04-30 12:56 | 43.39882 | 132.15466 | 62 ft | 17 kts | 242° |
| 2026-04-30 12:56 | 43.39824 | 132.15315 | 61 ft | 15 kts | 241° |
| 2026-04-30 12:56 | 43.39770 | 132.15180 | 64 ft | 17 kts | 241° |
| 2026-04-30 12:56 | 43.39709 | 132.15022 | 63 ft | 21 kts | 243° |
| 2026-04-30 12:57 | 43.39642 | 132.14836 | 62 ft | 23 kts | 243° |
| 2026-04-30 12:57 | 43.39570 | 132.14665 | 61 ft | 19 kts | 240° |
| 2026-04-30 12:57 | 43.39498 | 132.14493 | 64 ft | 22 kts | 240° |
| 2026-04-30 12:57 | 43.39416 | 132.14298 | 71 ft | 20 kts | 239° |
| 2026-04-30 12:58 | 43.39342 | 132.14191 | 64 ft | 15 kts | 177° |
| 2026-04-30 12:58 | 43.39272 | 132.14236 | 62 ft | 11 kts | 153° |
| 2026-04-30 12:58 | 43.39205 | 132.14291 | 63 ft | 9 kts | 127° |
| 2026-04-30 12:58 | 43.39219 | 132.14390 | 64 ft | 13 kts | 63° |
| 2026-04-30 12:59 | 43.39267 | 132.14507 | 68 ft | 16 kts | 59° |
| 2026-04-30 12:59 | 43.39324 | 132.14650 | 61 ft | 17 kts | 62° |
| 2026-04-30 12:59 | 43.39374 | 132.14777 | 63 ft | 12 kts | 62° |
| 2026-04-30 12:59 | 43.39410 | 132.14867 | 66 ft | 11 kts | 61° |
| 2026-04-30 13:00 | 43.39452 | 132.14969 | 63 ft | 14 kts | 61° |
| 2026-04-30 13:00 | 43.39501 | 132.15093 | 61 ft | 13 kts | 61° |
| 2026-04-30 13:00 | 43.39552 | 132.15217 | 69 ft | 17 kts | 60° |
| 2026-04-30 13:00 | 43.39611 | 132.15362 | 67 ft | 19 kts | 62° |
| 2026-04-30 13:01 | 43.39661 | 132.15488 | 62 ft | 16 kts | 60° |
| 2026-04-30 13:01 | 43.39714 | 132.15621 | 61 ft | 9 kts | 61° |
| 2026-04-30 13:01 | 43.39752 | 132.15713 | 69 ft | 13 kts | 60° |
| 2026-04-30 13:01 | 43.39801 | 132.15832 | 64 ft | 16 kts | 61° |
| 2026-04-30 13:02 | 43.39850 | 132.15955 | 62 ft | 15 kts | 61° |
| 2026-04-30 13:02 | 43.39892 | 132.16081 | 67 ft | 15 kts | 90° |
| 2026-04-30 13:02 | 43.39857 | 132.16188 | 68 ft | 8 kts | 68° |
| 2026-04-30 13:02 | 43.39888 | 132.16265 | 68 ft | 11 kts | 66° |
| 2026-04-30 13:03 | 43.39850 | 132.16342 | 62 ft | 8 kts | 150° |
| 2026-04-30 13:03 | 43.39838 | 132.16351 | 67 ft | 0 kts | 150° |
| 2026-04-30 13:03 | 43.39836 | 132.16353 | 68 ft | 0 kts | 150° |